Time;durP1;ratioP1;P1;durP2;ratioP2;P2;SDS_P1;SDS_P2;PMS_P1;PMS_P2;Temp;Humidity;BMP_temperature;BMP_pressure;BME280_temperature;BME280_humidity;BME280_pressure;Samples;Min_cycle;Max_cycle;Signal;HPM_P1;HPM_P2
2021/01/19 00:02:18;;;;;;;12.00;2.67;;;3.30;99.90;;;3.72;100.00;98606.88;5005710;28;21062;-78
2021/01/19 00:04:46;;;;;;;11.40;2.47;;;3.30;99.90;;;3.71;100.00;98607.84;5004122;28;20462;-78
2021/01/19 00:07:14;;;;;;;11.27;2.70;;;3.20;99.90;;;3.71;100.00;98609.63;4999626;28;20459;-78
2021/01/19 00:09:41;;;;;;;8.27;2.37;;;3.30;99.90;;;3.67;100.00;98603.06;4999896;28;20549;-78
2021/01/19 00:12:09;;;;;;;7.60;2.47;;;3.20;99.90;;;3.60;100.00;98596.78;5000523;28;20470;-78
2021/01/19 00:14:37;;;;;;;5.90;2.33;;;3.10;99.90;;;3.58;100.00;98596.88;5000646;28;20478;-78
2021/01/19 00:17:05;;;;;;;9.23;2.83;;;3.00;99.90;;;3.61;100.00;98604.38;4999914;28;20459;-78
2021/01/19 00:19:32;;;;;;;4.83;2.40;;;3.00;99.90;;;3.67;100.00;98588.38;5001352;28;21029;-78
2021/01/19 00:22:00;;;;;;;3.40;2.30;;;3.10;99.90;;;3.65;100.00;98592.00;4999470;28;20500;-78
2021/01/19 00:24:28;;;;;;;3.93;2.43;;;3.10;99.90;;;3.60;100.00;98592.41;5000428;28;20459;-78
2021/01/19 00:26:55;;;;;;;9.23;3.10;;;3.10;99.90;;;3.60;100.00;98579.50;4999829;28;20471;-78
2021/01/19 00:29:23;;;;;;;4.50;2.17;;;3.20;99.90;;;3.63;100.00;98575.81;5001262;28;20507;-78
2021/01/19 00:31:51;;;;;;;6.33;2.20;;;3.00;99.90;;;3.66;100.00;98575.56;4998467;28;20468;-78
2021/01/19 00:34:20;;;;;;;4.43;2.50;;;3.00;99.90;;;3.63;100.00;98570.66;5000101;28;20482;-78
2021/01/19 00:36:49;;;;;;;3.33;2.33;;;3.00;99.90;;;3.66;100.00;98567.81;4999285;28;20464;-77
2021/01/19 00:39:17;;;;;;;11.30;2.57;;;3.10;99.90;;;3.61;100.00;98562.22;5000008;28;21316;-78
2021/01/19 00:41:45;;;;;;;3.50;2.17;;;3.00;99.90;;;3.64;100.00;98564.53;5000546;28;20918;-78
2021/01/19 00:44:12;;;;;;;10.37;1.80;;;3.10;99.90;;;3.66;100.00;98562.63;4999941;28;20942;-78
2021/01/19 00:46:40;;;;;;;3.87;2.23;;;3.20;99.90;;;3.65;100.00;98563.56;4998665;28;20533;-78
2021/01/19 00:49:08;;;;;;;10.90;2.40;;;3.10;99.90;;;3.68;100.00;98553.00;5001135;28;20471;-78
2021/01/19 00:51:37;;;;;;;4.13;2.33;;;3.10;99.90;;;3.69;100.00;98544.25;4997916;28;20506;-78
2021/01/19 00:54:06;;;;;;;6.37;2.70;;;3.10;99.90;;;3.68;100.00;98546.03;5000884;28;20455;-78
2021/01/19 00:56:39;;;;;;;7.47;2.67;;;3.10;99.90;;;3.70;100.00;98543.31;4996181;28;20498;-78
2021/01/19 00:59:07;;;;;;;9.23;2.47;;;3.20;99.90;;;3.66;100.00;98534.19;5001065;28;20886;-79
2021/01/19 01:01:35;;;;;;;4.20;2.10;;;3.10;99.90;;;3.65;100.00;98537.72;4999976;28;20494;-78
2021/01/19 01:04:03;;;;;;;4.30;1.93;;;3.20;99.90;;;3.65;100.00;98529.97;4997979;28;20489;-78
2021/01/19 01:06:31;;;;;;;2.63;2.10;;;3.20;99.90;;;3.64;100.00;98512.81;5000439;28;20475;-78
2021/01/19 01:08:58;;;;;;;5.80;2.33;;;3.20;99.90;;;3.62;100.00;98506.94;4997247;28;20471;-78
2021/01/19 01:11:25;;;;;;;6.00;2.30;;;3.10;99.90;;;3.61;100.00;98511.31;4999882;28;20467;-78
2021/01/19 01:13:54;;;;;;;5.20;2.20;;;3.00;99.90;;;3.61;100.00;98510.50;4993045;28;20464;-77
2021/01/19 01:16:21;;;;;;;6.80;2.60;;;3.00;99.90;;;3.62;100.00;98517.28;5000280;28;20562;-78
2021/01/19 01:18:50;;;;;;;3.20;1.80;;;3.10;99.90;;;3.64;100.00;98511.06;4997534;28;20482;-78
2021/01/19 01:21:17;;;;;;;10.70;2.50;;;3.10;99.90;;;3.62;100.00;98512.13;5000851;28;20490;-78
2021/01/19 01:23:45;;;;;;;5.93;2.90;;;3.10;99.90;;;3.59;100.00;98507.22;4999459;28;20468;-78
2021/01/19 01:26:12;;;;;;;11.87;3.30;;;3.00;99.90;;;3.60;100.00;98504.53;4998283;28;20459;-79
2021/01/19 01:28:40;;;;;;;3.83;2.70;;;3.10;99.90;;;3.62;100.00;98507.78;5000347;28;20483;-78
2021/01/19 01:31:08;;;;;;;7.63;2.80;;;3.10;99.90;;;3.63;100.00;98503.44;4997965;28;20474;-78
2021/01/19 01:33:36;;;;;;;3.53;2.27;;;3.10;99.90;;;3.62;100.00;98497.44;4999409;28;20467;-78
2021/01/19 01:36:04;;;;;;;9.90;2.80;;;3.10;99.90;;;3.63;100.00;98493.91;5002023;28;20487;-78
2021/01/19 01:38:32;;;;;;;3.20;2.47;;;3.10;99.90;;;3.59;100.00;98502.06;5002225;28;20463;-78
2021/01/19 01:41:00;;;;;;;3.30;2.40;;;3.00;99.90;;;3.62;100.00;98494.03;5001242;28;20548;-78
2021/01/19 01:43:28;;;;;;;4.67;2.40;;;3.10;99.90;;;3.59;100.00;98491.72;5000930;28;20963;-78
2021/01/19 01:45:56;;;;;;;8.40;3.33;;;3.10;99.90;;;3.56;100.00;98472.13;5002960;28;20806;-78
2021/01/19 01:48:25;;;;;;;6.23;2.97;;;3.10;99.90;;;3.58;100.00;98464.22;5004352;28;20451;-78
2021/01/19 01:50:53;;;;;;;8.60;3.17;;;3.10;99.90;;;3.55;100.00;98460.97;5003632;28;20464;-78
2021/01/19 01:53:21;;;;;;;5.27;2.80;;;3.10;99.90;;;3.56;100.00;98451.44;5002179;28;20470;-78
2021/01/19 01:55:48;;;;;;;3.87;2.90;;;3.10;99.90;;;3.58;100.00;98443.53;5002370;28;20881;-78
2021/01/19 01:58:16;;;;;;;7.27;2.70;;;3.00;99.90;;;3.57;100.00;98447.09;5002560;28;20495;-78
2021/01/19 02:00:43;;;;;;;4.30;2.20;;;3.00;99.90;;;3.55;100.00;98447.22;5001447;28;20896;-78
2021/01/19 02:03:11;;;;;;;8.60;2.70;;;3.10;99.90;;;3.56;100.00;98446.25;5003643;28;20467;-78
2021/01/19 02:05:40;;;;;;;6.33;2.93;;;3.10;99.90;;;3.57;100.00;98432.41;5003122;28;20462;-78
2021/01/19 02:08:22;;;;;;;5.10;2.43;;;3.00;99.90;;;3.58;100.00;98431.44;5003067;28;20471;-78
2021/01/19 02:11:04;;;;;;;6.63;2.70;;;3.00;99.90;;;3.57;100.00;98436.75;5002799;28;20475;-78
2021/01/19 02:13:44;;;;;;;8.33;2.80;;;3.10;99.90;;;3.55;100.00;98423.94;5003026;28;20502;-78
2021/01/19 02:16:34;;;;;;;12.30;2.70;;;3.00;99.90;;;3.57;100.00;98426.41;5002433;28;20886;-78
2021/01/19 02:19:46;;;;;;;3.90;2.43;;;3.00;99.90;;;3.58;100.00;98418.50;5003420;28;20467;-78
2021/01/19 02:23:01;;;;;;;3.03;2.20;;;3.00;99.90;;;3.53;100.00;98425.84;4980769;28;20602;-79
2021/01/19 02:26:01;;;;;;;8.67;3.23;;;3.00;99.90;;;3.54;100.00;98420.53;5003415;28;20471;-78
2021/01/19 02:28:37;;;;;;;6.33;2.70;;;2.90;99.90;;;3.55;100.00;98417.00;4984907;28;20497;-78
2021/01/19 02:31:33;;;;;;;9.07;2.53;;;3.00;99.90;;;3.52;100.00;98414.69;5001133;28;20474;-78
2021/01/19 02:34:13;;;;;;;4.33;2.20;;;3.00;99.90;;;3.51;100.00;98401.88;5001420;28;20466;-79
2021/01/19 02:36:54;;;;;;;6.60;2.50;;;3.00;99.90;;;3.53;100.00;98395.66;5002436;28;20532;-78
2021/01/19 02:39:30;;;;;;;8.10;2.73;;;3.00;99.90;;;3.54;100.00;98402.44;5000062;28;20462;-78
2021/01/19 02:42:05;;;;;;;12.77;3.37;;;3.00;99.90;;;3.51;100.00;98394.97;5001296;28;20590;-79
2021/01/19 02:44:38;;;;;;;4.50;2.50;;;2.90;99.90;;;3.55;100.00;98404.09;5000083;28;20462;-78
2021/01/19 02:47:06;;;;;;;7.63;3.07;;;3.10;99.90;;;3.49;100.00;98394.28;5001156;28;20543;-78
2021/01/19 02:49:35;;;;;;;7.33;3.40;;;3.00;99.90;;;3.49;100.00;98383.94;4997614;28;20806;-78
2021/01/19 02:52:04;;;;;;;8.50;3.30;;;3.00;99.90;;;3.52;100.00;98378.50;5001701;28;20473;-79
2021/01/19 02:54:33;;;;;;;7.93;3.07;;;3.00;99.90;;;3.51;100.00;98374.28;4998558;28;20541;-78
2021/01/19 02:57:16;;;;;;;4.43;2.40;;;3.10;99.90;;;3.45;100.00;98371.41;5002063;28;20483;-78
2021/01/19 03:00:03;;;;;;;2.83;2.47;;;3.00;99.90;;;3.48;100.00;98371.97;4997583;28;20953;-78
2021/01/19 03:02:33;;;;;;;5.40;3.00;;;3.00;99.90;;;3.46;100.00;98363.53;4998375;28;21015;-78
2021/01/19 03:05:05;;;;;;;5.97;3.10;;;3.00;99.90;;;3.48;100.00;98360.81;5001357;28;20487;-78
2021/01/19 03:07:38;;;;;;;5.70;3.03;;;2.90;99.90;;;3.49;100.00;98352.94;5000791;28;20562;-78
2021/01/19 03:10:08;;;;;;;12.90;2.87;;;2.90;99.90;;;3.52;100.00;98351.84;4999008;28;20957;-78
2021/01/19 03:12:43;;;;;;;4.07;2.57;;;2.90;99.90;;;3.48;100.00;98353.06;4999126;28;20463;-78
2021/01/19 03:15:12;;;;;;;7.63;2.73;;;2.90;99.90;;;3.46;100.00;98353.19;4999440;28;20503;-78
2021/01/19 03:17:43;;;;;;;7.30;2.77;;;2.80;99.90;;;3.48;100.00;98351.28;5001317;28;20945;-78
2021/01/19 03:20:13;;;;;;;3.73;2.30;;;2.80;99.90;;;3.52;100.00;98352.66;5000264;28;20967;-78
2021/01/19 03:22:42;;;;;;;4.00;2.60;;;3.00;99.90;;;3.49;100.00;98350.34;5001414;28;20523;-78
2021/01/19 03:25:10;;;;;;;3.77;2.57;;;3.00;99.90;;;3.44;100.00;98349.91;4994960;28;20883;-78
2021/01/19 03:27:38;;;;;;;6.60;2.93;;;2.90;99.90;;;3.45;100.00;98340.41;5001196;28;20472;-78
2021/01/19 03:30:08;;;;;;;6.03;3.10;;;3.00;99.90;;;3.46;100.00;98335.09;4977756;28;668429;-78
2021/01/19 03:32:35;;;;;;;5.97;3.70;;;3.00;99.90;;;3.45;100.00;98336.06;5001776;28;20463;-78
2021/01/19 03:35:03;;;;;;;10.20;2.60;;;3.00;99.90;;;3.39;100.00;98341.75;4999241;28;20474;-78
2021/01/19 03:37:32;;;;;;;4.30;2.20;;;2.90;99.90;;;3.41;100.00;98341.63;5000448;28;20540;-78
2021/01/19 03:39:59;;;;;;;15.83;2.93;;;2.90;99.90;;;3.43;100.00;98331.97;5001867;28;20459;-78
2021/01/19 03:42:27;;;;;;;6.30;2.97;;;2.90;99.90;;;3.44;100.00;98325.84;4999937;28;20596;-78
2021/01/19 03:44:54;;;;;;;5.33;2.93;;;3.00;99.90;;;3.43;100.00;98325.03;5001110;28;20889;-78
2021/01/19 03:47:21;;;;;;;7.60;2.60;;;2.90;99.90;;;3.45;100.00;98327.47;5001464;28;20455;-78
2021/01/19 03:49:49;;;;;;;6.63;2.33;;;3.00;99.90;;;3.43;100.00;98327.63;5001337;28;20468;-78
2021/01/19 03:52:17;;;;;;;5.93;2.70;;;2.90;99.90;;;3.40;100.00;98320.13;4999642;28;20467;-78
2021/01/19 03:54:45;;;;;;;12.43;2.57;;;2.90;99.90;;;3.48;100.00;98319.44;4998995;28;20470;-78
2021/01/19 03:57:12;;;;;;;10.77;3.13;;;3.00;99.90;;;3.43;100.00;98319.88;5000995;28;20999;-78
2021/01/19 03:59:40;;;;;;;6.07;2.87;;;3.00;99.90;;;3.43;100.00;98317.28;4999633;28;20511;-78
2021/01/19 04:02:08;;;;;;;7.43;2.67;;;3.00;99.90;;;3.44;100.00;98303.41;4998971;28;20580;-78
2021/01/19 04:04:36;;;;;;;6.63;3.00;;;3.00;99.90;;;3.42;100.00;98305.31;4999879;28;20479;-78
2021/01/19 04:07:03;;;;;;;4.57;2.60;;;3.00;99.90;;;3.41;100.00;98303.66;5000719;28;20448;-78
2021/01/19 04:09:30;;;;;;;3.07;2.50;;;3.00;99.90;;;3.39;100.00;98295.25;4999522;28;20463;-78
2021/01/19 04:11:59;;;;;;;2.83;2.50;;;2.90;99.90;;;3.44;100.00;98284.47;5000866;28;20459;-78
2021/01/19 04:14:26;;;;;;;8.53;2.10;;;2.90;99.90;;;3.46;100.00;98286.00;5003541;28;20466;-78
2021/01/19 04:16:54;;;;;;;7.03;3.00;;;3.00;99.90;;;3.44;100.00;98282.72;5001307;28;20965;-78
2021/01/19 04:19:21;;;;;;;5.83;2.80;;;3.00;99.90;;;3.45;100.00;98288.72;4999396;28;20980;-78
2021/01/19 04:21:49;;;;;;;8.73;2.60;;;3.00;99.90;;;3.45;100.00;98280.94;4999100;28;20865;-78
2021/01/19 04:24:16;;;;;;;3.30;2.43;;;3.00;99.90;;;3.43;100.00;98278.53;4998925;28;20467;-78
2021/01/19 04:26:44;;;;;;;8.00;2.33;;;3.00;99.90;;;3.41;100.00;98271.84;5000064;28;20848;-78
2021/01/19 04:29:12;;;;;;;6.27;3.00;;;2.90;99.90;;;3.37;100.00;98262.72;5000511;28;21310;-78
2021/01/19 04:31:40;;;;;;;6.10;2.40;;;2.90;99.90;;;3.37;100.00;98250.63;4998157;28;20872;-79
2021/01/19 04:34:07;;;;;;;5.23;2.80;;;3.00;99.90;;;3.35;100.00;98249.94;4997854;28;20501;-78
2021/01/19 04:36:35;;;;;;;6.73;2.77;;;2.90;99.90;;;3.35;100.00;98237.03;5000178;28;20841;-78
2021/01/19 04:39:03;;;;;;;5.20;2.73;;;2.90;99.90;;;3.34;100.00;98229.41;4998521;28;20768;-78
2021/01/19 04:41:33;;;;;;;3.60;2.50;;;2.90;99.90;;;3.30;100.00;98218.53;4997200;28;20490;-78
2021/01/19 04:44:03;;;;;;;5.10;2.10;;;2.90;99.90;;;3.30;100.00;98218.53;5001823;28;20473;-78
2021/01/19 04:46:32;;;;;;;7.93;2.60;;;2.90;99.90;;;3.32;100.00;98221.81;5000475;28;20470;-80
2021/01/19 04:49:04;;;;;;;11.13;3.37;;;2.90;99.90;;;3.31;100.00;98217.59;5000124;28;20522;-77
2021/01/19 04:51:35;;;;;;;9.00;2.63;;;2.90;99.90;;;3.32;100.00;98205.47;4999959;28;20837;-78
2021/01/19 04:54:06;;;;;;;7.13;2.67;;;2.90;99.90;;;3.29;100.00;98209.16;5001102;28;20463;-78
2021/01/19 04:56:39;;;;;;;6.60;2.57;;;2.90;99.90;;;3.27;100.00;98198.13;5001726;28;20483;-78
2021/01/19 04:59:13;;;;;;;4.00;2.43;;;2.90;99.90;;;3.28;100.00;98192.03;5000778;28;20450;-78
2021/01/19 05:02:26;;;;;;;6.50;2.73;;;2.90;99.90;;;3.27;100.00;98186.97;5001914;28;20498;-78
2021/01/19 05:05:56;;;;;;;9.50;2.70;;;2.80;99.90;;;3.27;100.00;98190.38;5000985;28;20448;-78
2021/01/19 05:09:07;;;;;;;8.27;2.20;;;2.80;99.90;;;3.25;100.00;98181.16;4985765;28;20450;-78
2021/01/19 05:11:52;;;;;;;4.10;2.20;;;2.80;99.90;;;3.22;100.00;98190.00;5001236;28;20444;-78
2021/01/19 05:14:22;;;;;;;3.67;2.50;;;2.70;99.90;;;3.23;100.00;98181.28;4996963;28;20478;-78
2021/01/19 05:16:51;;;;;;;9.70;2.47;;;2.80;99.90;;;3.27;100.00;98180.03;4998777;28;20479;-78
2021/01/19 05:19:23;;;;;;;6.90;1.90;;;2.80;99.90;;;3.20;100.00;98170.41;4996421;28;20471;-77
2021/01/19 05:21:54;;;;;;;8.33;4.37;;;2.80;99.90;;;3.21;100.00;98172.03;4994542;28;20507;-78
2021/01/19 05:24:22;;;;;;;3.90;2.30;;;2.70;99.90;;;3.22;100.00;98163.34;4998663;28;21381;-78
2021/01/19 05:26:51;;;;;;;7.33;2.03;;;2.70;99.90;;;3.20;100.00;98170.41;4998064;28;20467;-78
2021/01/19 05:29:20;;;;;;;8.60;2.90;;;2.70;99.90;;;3.23;100.00;98172.72;4997299;28;20495;-78
2021/01/19 05:31:52;;;;;;;6.07;2.50;;;2.70;99.90;;;3.20;100.00;98155.72;4997933;28;20464;-78
2021/01/19 05:34:21;;;;;;;14.57;3.03;;;2.60;99.90;;;3.22;100.00;98158.16;4999066;28;20502;-78
2021/01/19 05:36:50;;;;;;;2.40;1.80;;;2.70;99.90;;;3.26;100.00;98157.78;4998275;28;20972;-78
2021/01/19 05:39:20;;;;;;;5.87;2.33;;;2.70;99.90;;;3.28;100.00;98153.25;5000092;28;20459;-78
2021/01/19 05:41:49;;;;;;;2.60;2.30;;;2.80;99.90;;;3.25;100.00;98148.38;4998915;28;20501;-77
2021/01/19 05:44:24;;;;;;;12.17;2.87;;;2.70;99.90;;;3.31;100.00;98142.66;4999079;28;20467;-78
2021/01/19 05:47:02;;;;;;;2.13;1.57;;;2.80;99.90;;;3.29;100.00;98139.41;5000199;28;20474;-78
2021/01/19 05:49:33;;;;;;;6.90;2.70;;;2.80;99.90;;;3.26;100.00;98133.69;4999334;28;20508;-78
2021/01/19 05:52:03;;;;;;;7.27;2.30;;;2.70;99.90;;;3.30;100.00;98122.09;4997260;28;20848;-78
2021/01/19 05:54:33;;;;;;;23.57;10.07;;;2.80;99.90;;;3.32;100.00;98122.78;4997712;28;20467;-78
2021/01/19 05:57:04;;;;;;;9.60;3.60;;;2.80;99.90;;;3.35;100.00;98122.50;4999399;28;20491;-78
2021/01/19 05:59:43;;;;;;;5.03;2.70;;;2.90;99.90;;;3.35;100.00;98107.81;5000226;28;20536;-78
2021/01/19 06:02:15;;;;;;;6.10;2.23;;;2.90;99.90;;;3.33;100.00;98114.88;4998825;28;21003;-78
2021/01/19 06:04:45;;;;;;;5.03;2.00;;;2.90;99.90;;;3.29;100.00;98117.91;5001394;28;20853;-78
2021/01/19 06:07:14;;;;;;;6.47;2.87;;;2.90;99.90;;;3.26;100.00;98113.84;5001421;28;20530;-78
2021/01/19 06:09:44;;;;;;;3.37;1.93;;;2.80;99.90;;;3.29;100.00;98116.16;5000937;28;20933;-78
2021/01/19 06:12:13;;;;;;;4.47;2.60;;;2.90;99.90;;;3.27;100.00;98120.63;4999785;28;20456;-79
2021/01/19 06:14:47;;;;;;;5.20;2.47;;;2.90;99.90;;;3.24;100.00;98120.91;5001606;28;20448;-78
2021/01/19 06:17:20;;;;;;;5.60;2.40;;;2.80;99.90;;;3.25;100.00;98127.72;5000206;28;20459;-78
2021/01/19 06:19:49;;;;;;;24.53;7.27;;;2.90;99.90;;;3.25;100.00;98112.19;4998035;28;20553;-78
2021/01/19 06:22:23;;;;;;;7.27;3.50;;;2.80;99.90;;;3.29;100.00;98115.31;4999128;28;20498;-78
2021/01/19 06:24:53;;;;;;;10.60;2.33;;;2.80;99.90;;;3.33;100.00;98109.72;5003475;28;21052;-78
2021/01/19 06:27:30;;;;;;;6.27;3.20;;;2.80;99.90;;;3.32;100.00;98097.78;5003480;28;20878;-78
2021/01/19 06:30:12;;;;;;;5.57;2.40;;;2.90;99.90;;;3.30;100.00;98099.66;5002552;28;20498;-78
2021/01/19 06:32:48;;;;;;;9.37;2.53;;;2.80;99.90;;;3.32;100.00;98090.03;5001349;28;20620;-78
2021/01/19 06:35:19;;;;;;;6.50;2.80;;;2.90;99.90;;;3.33;100.00;98096.78;4999730;28;20467;-78
2021/01/19 06:37:49;;;;;;;4.77;2.53;;;2.80;99.90;;;3.35;100.00;98086.34;5002011;28;20487;-77
2021/01/19 06:40:22;;;;;;;7.63;3.40;;;2.80;99.90;;;3.33;100.00;98094.22;4997925;28;20470;-78
2021/01/19 06:42:58;;;;;;;7.17;2.40;;;2.90;99.90;;;3.33;100.00;98096.00;5001750;28;20502;-77
2021/01/19 06:45:27;;;;;;;4.20;3.03;;;2.90;99.90;;;3.32;100.00;98086.63;5000871;28;20498;-78
2021/01/19 06:47:57;;;;;;;5.40;3.30;;;2.90;99.90;;;3.30;100.00;98094.50;5002529;28;20477;-78
2021/01/19 06:50:27;;;;;;;8.57;3.07;;;2.80;99.90;;;3.28;100.00;98073.16;5002423;28;20483;-78
2021/01/19 06:53:15;;;;;;;4.80;2.60;;;2.70;99.90;;;3.32;100.00;98071.94;5001823;28;20467;-78
2021/01/19 06:56:06;;;;;;;6.60;3.17;;;2.90;99.90;;;3.28;100.00;98060.25;5001698;28;20464;-78
2021/01/19 06:58:55;;;;;;;9.40;3.30;;;2.80;99.90;;;3.25;100.00;98057.13;5000565;28;20460;-78
2021/01/19 07:01:25;;;;;;;7.13;3.13;;;2.70;99.90;;;3.25;100.00;98052.78;5001850;28;20534;-78
2021/01/19 07:04:08;;;;;;;5.27;2.70;;;2.80;99.90;;;3.24;100.00;98058.91;5000514;28;20480;-77
2021/01/19 07:07:17;;;;;;;6.03;2.70;;;2.80;99.90;;;3.20;100.00;98054.97;4999704;28;20478;-78
2021/01/19 07:10:08;;;;;;;5.37;2.93;;;2.70;99.90;;;3.21;100.00;98053.19;5001214;28;20513;-77
2021/01/19 07:13:01;;;;;;;3.60;2.50;;;2.70;99.90;;;3.23;100.00;98046.91;5003032;28;20452;-77
2021/01/19 07:16:06;;;;;;;14.47;3.40;;;2.70;99.90;;;3.17;100.00;98052.66;5003173;28;20460;-77
2021/01/19 07:19:23;;;;;;;4.87;2.40;;;2.70;99.90;;;3.22;100.00;98047.91;5001905;28;20463;-78
2021/01/19 07:22:06;;;;;;;12.63;2.73;;;2.90;99.90;;;3.16;100.00;98053.59;4983321;28;21038;-77
2021/01/19 07:24:41;;;;;;;9.57;2.90;;;2.70;99.90;;;3.20;100.00;98052.38;4999404;28;20451;-78
2021/01/19 07:27:13;;;;;;;13.50;3.20;;;2.70;99.90;;;3.16;100.00;98045.06;5001628;28;20830;-78
2021/01/19 07:29:43;;;;;;;6.73;3.10;;;2.70;99.90;;;3.17;100.00;98033.75;5001760;28;20498;-77
2021/01/19 07:32:15;;;;;;;5.93;3.03;;;2.70;99.90;;;3.19;100.00;98035.25;5001749;28;20822;-78
2021/01/19 07:34:45;;;;;;;9.73;2.77;;;2.70;99.90;;;3.20;100.00;98029.13;5002613;28;20459;-77
2021/01/19 07:37:13;;;;;;;11.80;3.00;;;2.70;99.90;;;3.15;100.00;98013.25;5002175;28;20466;-78
2021/01/19 07:39:41;;;;;;;4.37;2.60;;;2.70;99.90;;;3.16;100.00;98016.66;5002679;28;20454;-77
2021/01/19 07:42:15;;;;;;;7.80;2.93;;;2.70;99.90;;;3.19;100.00;98011.19;5000994;28;20518;-77
2021/01/19 07:44:55;;;;;;;5.80;2.77;;;2.70;99.90;;;3.20;100.00;98015.38;5002825;28;20463;-76
2021/01/19 07:47:34;;;;;;;5.97;2.57;;;2.70;99.90;;;3.21;100.00;97996.34;5002191;28;20459;-77
2021/01/19 07:50:05;;;;;;;4.20;2.43;;;2.70;99.90;;;3.22;100.00;97996.22;5001972;28;20506;-77
2021/01/19 07:52:40;;;;;;;4.37;2.90;;;2.80;99.90;;;3.21;100.00;98002.34;5002360;28;20561;-77
2021/01/19 07:55:20;;;;;;;6.47;3.03;;;2.80;99.90;;;3.24;100.00;98022.72;5002372;28;20450;-78
2021/01/19 07:57:50;;;;;;;7.07;2.80;;;2.80;99.90;;;3.24;100.00;98017.56;5002652;28;21046;-77
2021/01/19 08:00:24;;;;;;;8.27;2.70;;;2.80;99.90;;;3.21;100.00;97999.75;5001415;28;20447;-77
2021/01/19 08:03:03;;;;;;;7.43;3.07;;;2.70;99.90;;;3.22;100.00;98003.16;5001746;28;20582;-77
2021/01/19 08:05:32;;;;;;;4.33;3.23;;;2.80;99.90;;;3.22;100.00;98000.56;5001742;28;20544;-77
2021/01/19 08:08:01;;;;;;;5.70;3.33;;;2.70;99.90;;;3.22;100.00;97998.81;5002050;28;20450;-77
2021/01/19 08:10:32;;;;;;;6.73;2.97;;;2.70;99.90;;;3.28;100.00;97998.25;5001780;28;20451;-77
2021/01/19 08:13:03;;;;;;;11.13;4.00;;;2.80;99.90;;;3.33;100.00;97996.03;5001985;28;20466;-77
2021/01/19 08:15:33;;;;;;;7.47;3.30;;;2.90;99.90;;;3.30;100.00;97985.97;5002954;28;20451;-78
2021/01/19 08:18:03;;;;;;;6.90;3.53;;;2.80;99.90;;;3.33;100.00;97975.34;5001980;28;20457;-77
2021/01/19 08:20:49;;;;;;;4.33;2.57;;;3.00;99.90;;;3.25;100.00;97967.53;5001543;28;20495;-77
2021/01/19 08:23:20;;;;;;;10.90;3.43;;;2.70;99.90;;;3.29;100.00;97963.69;5001174;28;20494;-77
2021/01/19 08:25:48;;;;;;;7.90;2.20;;;2.80;99.90;;;3.29;100.00;97961.13;5001546;28;20452;-77
2021/01/19 08:28:15;;;;;;;8.53;2.90;;;2.80;99.90;;;3.35;100.00;97942.44;4999396;28;20506;-78
2021/01/19 08:30:45;;;;;;;3.73;2.50;;;2.90;99.90;;;3.33;100.00;97951.31;5001851;28;20463;-77
2021/01/19 08:33:13;;;;;;;5.57;2.70;;;2.80;99.90;;;3.31;100.00;97945.44;5001498;28;20467;-77
2021/01/19 08:35:41;;;;;;;5.13;2.80;;;2.80;99.90;;;3.32;100.00;97936.75;5001042;28;20972;-77
2021/01/19 08:38:10;;;;;;;7.53;3.17;;;2.80;99.90;;;3.39;100.00;97936.03;5002035;28;20489;-77
2021/01/19 08:40:41;;;;;;;7.70;2.90;;;2.90;99.90;;;3.44;100.00;97940.75;5001153;28;20456;-78
2021/01/19 08:43:09;;;;;;;7.20;2.60;;;2.90;99.90;;;3.45;100.00;97932.88;5001759;28;20526;-77
2021/01/19 08:45:39;;;;;;;3.43;2.70;;;3.00;99.90;;;3.44;100.00;97926.06;5000830;28;20460;-78
2021/01/19 08:48:11;;;;;;;2.57;2.37;;;3.00;99.90;;;3.48;100.00;97927.41;5001447;28;20793;-77
2021/01/19 08:50:42;;;;;;;7.97;3.67;;;3.00;99.90;;;3.50;100.00;97930.69;5001980;28;20543;-77
2021/01/19 08:53:12;;;;;;;6.43;2.73;;;3.00;99.90;;;3.48;100.00;97922.22;5001426;28;20451;-77
2021/01/19 08:55:42;;;;;;;6.00;2.90;;;3.00;99.90;;;3.48;100.00;97929.16;5001812;28;20447;-78
2021/01/19 08:58:20;;;;;;;5.10;2.13;;;3.00;99.90;;;3.49;100.00;97930.81;5000476;28;20554;-77
2021/01/19 09:00:48;;;;;;;7.23;2.77;;;3.00;99.90;;;3.55;100.00;97925.03;5001774;28;20465;-77
2021/01/19 09:03:18;;;;;;;5.73;3.00;;;3.10;99.90;;;3.53;100.00;97914.88;5000897;28;21010;-77
2021/01/19 09:06:07;;;;;;;4.10;2.50;;;3.10;99.90;;;3.50;100.00;97915.16;5001667;28;20452;-77
2021/01/19 09:08:41;;;;;;;10.33;2.93;;;3.10;99.90;;;3.45;100.00;97930.28;5001054;28;20447;-78
2021/01/19 09:11:10;;;;;;;9.40;3.00;;;2.90;99.90;;;3.51;100.00;97916.78;5001125;28;20455;-77
2021/01/19 09:13:50;;;;;;;4.17;3.13;;;3.10;99.90;;;3.52;100.00;97915.81;5000917;28;20446;-77
2021/01/19 09:16:24;;;;;;;6.53;2.97;;;3.10;99.90;;;3.51;100.00;97921.13;4998019;28;20838;-78
2021/01/19 09:18:53;;;;;;;6.47;2.70;;;3.00;99.90;;;3.52;100.00;97907.25;5000578;28;21088;-78
2021/01/19 09:21:22;;;;;;;11.60;2.80;;;3.10;99.90;;;3.56;100.00;97913.75;5001683;28;20890;-77
2021/01/19 09:23:51;;;;;;;4.87;2.37;;;3.10;99.90;;;3.57;100.00;97906.81;5000827;28;20510;-77
2021/01/19 09:26:19;;;;;;;4.07;2.70;;;3.10;99.90;;;3.53;100.00;97901.94;4999211;28;20808;-77
2021/01/19 09:28:47;;;;;;;4.33;2.20;;;3.10;99.90;;;3.55;100.00;97910.34;4999772;28;21014;-77
2021/01/19 09:31:18;;;;;;;3.47;2.13;;;3.10;99.90;;;3.59;100.00;97899.72;5000229;28;20834;-77
2021/01/19 09:33:48;;;;;;;7.70;2.67;;;3.10;99.90;;;3.62;100.00;97904.59;5000670;28;20460;-78
2021/01/19 09:36:17;;;;;;;12.90;2.90;;;3.20;99.90;;;3.61;100.00;97900.41;5000372;28;20520;-78
2021/01/19 09:38:47;;;;;;;8.13;2.53;;;3.20;99.90;;;3.64;100.00;97910.44;5000558;28;20505;-77
2021/01/19 09:41:21;;;;;;;4.37;2.30;;;3.20;99.90;;;3.66;100.00;97903.34;5000355;28;20458;-77
2021/01/19 09:43:54;;;;;;;4.90;2.40;;;3.20;99.90;;;3.58;100.00;97905.84;4999842;28;20999;-77
2021/01/19 09:46:24;;;;;;;9.33;3.20;;;3.10;99.90;;;3.63;100.00;97893.28;5000613;28;20569;-77
2021/01/19 09:49:01;;;;;;;3.10;2.63;;;3.20;99.90;;;3.60;100.00;97903.94;5000331;28;20448;-77
2021/01/19 09:51:30;;;;;;;5.10;2.33;;;3.10;99.90;;;3.60;100.00;97894.41;5000859;28;20459;-77
2021/01/19 09:54:01;;;;;;;6.83;2.30;;;3.20;99.90;;;3.58;100.00;97904.06;5000951;28;20593;-77
2021/01/19 09:56:30;;;;;;;5.67;2.70;;;3.20;99.90;;;3.53;100.00;97894.19;5002487;28;20479;-77
2021/01/19 09:59:04;;;;;;;8.30;2.70;;;3.10;99.90;;;3.54;100.00;97888.03;5005044;28;20451;-77
2021/01/19 10:01:32;;;;;;;6.87;2.60;;;3.10;99.90;;;3.50;100.00;97891.09;5004724;28;20936;-78
2021/01/19 10:04:01;;;;;;;6.57;2.70;;;3.10;99.90;;;3.53;100.00;97893.38;5004315;28;20502;-77
2021/01/19 10:06:28;;;;;;;6.70;2.63;;;3.10;99.90;;;3.53;100.00;97877.88;5004409;28;20471;-77
2021/01/19 10:08:56;;;;;;;8.77;2.90;;;3.10;99.90;;;3.53;100.00;97881.28;5004625;28;20455;-77
2021/01/19 10:11:33;;;;;;;7.80;2.60;;;3.10;99.90;;;3.45;100.00;97870.84;5004341;28;20455;-77
2021/01/19 10:14:11;;;;;;;9.77;2.70;;;3.00;99.90;;;3.48;100.00;97878.28;5004776;28;20462;-77
2021/01/19 10:16:45;;;;;;;3.70;2.17;;;3.00;99.90;;;3.55;100.00;97879.34;5004163;28;20458;-77
2021/01/19 10:19:20;;;;;;;2.80;2.20;;;3.00;99.90;;;3.55;100.00;97878.53;5004022;28;20534;-77
2021/01/19 10:21:50;;;;;;;5.97;3.27;;;3.10;99.90;;;3.59;100.00;97872.09;5004545;28;20458;-77
2021/01/19 10:24:19;;;;;;;6.47;2.43;;;3.10;99.90;;;3.60;100.00;97870.34;5003428;28;20464;-77
2021/01/19 10:27:01;;;;;;;4.30;2.30;;;3.10;99.90;;;3.55;100.00;97861.25;5004827;28;20446;-77
2021/01/19 10:29:34;;;;;;;8.43;2.30;;;3.10;99.90;;;3.56;100.00;97869.81;5001424;28;20487;-77
2021/01/19 10:32:06;;;;;;;4.27;2.40;;;3.10;99.90;;;3.54;100.00;97859.59;5003500;28;20455;-77
2021/01/19 10:34:35;;;;;;;6.50;2.27;;;3.10;99.90;;;3.49;100.00;97861.03;5002741;28;20550;-77
2021/01/19 10:37:03;;;;;;;4.90;2.50;;;3.00;99.90;;;3.52;100.00;97853.78;5003862;28;20462;-77
2021/01/19 10:39:31;;;;;;;13.70;3.47;;;3.00;99.90;;;3.54;100.00;97854.44;5003767;28;20459;-77
2021/01/19 10:42:00;;;;;;;5.20;1.80;;;3.10;99.90;;;3.53;100.00;97849.44;5003332;28;20517;-77
2021/01/19 10:44:27;;;;;;;4.50;2.33;;;3.10;99.90;;;3.58;100.00;97836.03;5002536;28;21043;-77
2021/01/19 10:46:58;;;;;;;4.13;1.90;;;3.10;99.90;;;3.55;100.00;97835.41;4999331;28;20454;-77
2021/01/19 10:49:30;;;;;;;2.53;2.10;;;3.10;99.90;;;3.53;100.00;97821.00;5004035;28;20469;-77